Time;durP1;ratioP1;P1;durP2;ratioP2;P2;SDS_P1;SDS_P2;PMS_P1;PMS_P2;Temp;Humidity;BMP_temperature;BMP_pressure;BME280_temperature;BME280_humidity;BME280_pressure;Samples;Min_cycle;Max_cycle;Signal;HPM_P1;HPM_P2
2021/08/24 00:01:22;;;;;;;7.57;6.88;;;;;;;25.61;38.89;94529.56;4977569;28;99337;-51
2021/08/24 00:03:48;;;;;;;7.93;6.80;;;;;;;25.60;39.32;94530.78;4977899;28;96671;-52
2021/08/24 00:06:14;;;;;;;11.60;7.65;;;;;;;25.60;39.21;94530.78;4978237;28;96914;-56
2021/08/24 00:08:41;;;;;;;11.63;9.00;;;;;;;25.56;39.09;94528.09;4977372;28;97084;-54
2021/08/24 00:11:07;;;;;;;11.75;9.40;;;;;;;25.59;39.31;94534.75;4976763;28;99786;-54
2021/08/24 00:13:32;;;;;;;12.50;10.20;;;;;;;25.59;39.44;94529.22;4977122;28;96782;-56
2021/08/24 00:15:58;;;;;;;11.13;7.13;;;;;;;25.60;39.46;94530.78;4977757;28;96941;-57
2021/08/24 00:18:23;;;;;;;9.00;6.80;;;;;;;25.62;39.32;94541.41;4977072;28;99500;-53
2021/08/24 00:20:50;;;;;;;8.85;7.25;;;;;;;25.61;39.50;94526.81;4976672;28;99422;-54
2021/08/24 00:23:17;;;;;;;9.07;6.47;;;;;;;25.63;39.53;94529.88;4977652;28;96883;-55
2021/08/24 00:25:42;;;;;;;8.40;6.20;;;;;;;25.63;39.63;94524.34;4977757;28;96899;-53
2021/08/24 00:28:08;;;;;;;8.30;6.00;;;;;;;25.64;39.91;94514.84;4984954;28;99611;-52
2021/08/24 00:30:34;;;;;;;8.13;6.15;;;;;;;25.63;39.90;94518.81;4977233;28;99579;-54
2021/08/24 00:33:00;;;;;;;11.70;7.90;;;;;;;25.67;39.86;94513.97;4977680;28;97186;-52
2021/08/24 00:35:25;;;;;;;10.70;8.57;;;;;;;25.64;39.92;94509.31;4977624;28;97078;-57
2021/08/24 00:37:51;;;;;;;9.05;7.45;;;;;;;25.64;40.07;94514.09;4976244;28;99452;-54
2021/08/24 00:40:17;;;;;;;8.68;7.53;;;;;;;25.64;39.96;94517.59;4977139;28;99486;-54
2021/08/24 00:42:43;;;;;;;9.25;7.95;;;;;;;25.65;39.80;94504.56;4977591;28;96948;-49
2021/08/24 00:45:10;;;;;;;8.70;7.10;;;;;;;25.65;39.99;94508.09;4977294;28;96777;-52
2021/08/24 00:47:36;;;;;;;7.78;6.97;;;;;;;25.66;40.17;94511.66;4976754;28;99952;-52
2021/08/24 00:50:34;;;;;;;7.70;6.70;;;;;;;25.65;40.12;94505.34;4959205;28;99518;-56
2021/08/24 00:53:09;;;;;;;7.75;6.18;;;;;;;25.64;40.33;94509.31;4966487;28;96987;-55
2021/08/24 00:55:35;;;;;;;7.45;6.13;;;;;;;25.66;40.30;94506.88;4976527;28;96810;-54
2021/08/24 00:58:04;;;;;;;10.52;8.23;;;;;;;25.62;40.43;94506.22;4959144;28;99176;-49
2021/08/24 01:00:30;;;;;;;11.70;7.70;;;;;;;25.65;40.40;94499.81;4976539;28;99186;-54
2021/08/24 01:03:22;;;;;;;10.13;8.07;;;;;;;25.66;40.34;94509.66;4976521;28;96784;-50
2021/08/24 01:05:49;;;;;;;11.43;8.52;;;;;;;25.62;40.55;94497.91;4976892;28;96995;-54
2021/08/24 01:08:28;;;;;;;11.98;8.60;;;;;;;25.64;40.61;94498.25;4975215;28;99227;-51
2021/08/24 01:11:23;;;;;;;11.35;7.90;;;;;;;25.63;40.58;94496.69;4975412;28;99579;-55
2021/08/24 01:14:04;;;;;;;10.88;7.63;;;;;;;25.60;40.54;94501.13;4975811;28;96773;-55
2021/08/24 01:17:00;;;;;;;9.40;8.00;;;;;;;25.60;40.47;94495.59;4975909;28;96834;-55
2021/08/24 01:19:28;;;;;;;13.63;10.25;;;;;;;25.60;40.89;94497.59;4973848;28;99508;-56
2021/08/24 01:21:57;;;;;;;13.48;10.00;;;;;;;25.59;40.84;94496.03;4975997;28;98877;-53
2021/08/24 01:24:45;;;;;;;11.63;9.15;;;;;;;25.59;40.89;94490.50;4976409;28;96737;-54
2021/08/24 01:27:19;;;;;;;9.65;7.82;;;;;;;25.58;40.89;94495.25;4975481;28;96876;-53
2021/08/24 01:30:08;;;;;;;10.15;7.72;;;;;;;25.60;40.90;94503.13;4958736;28;99564;-51
2021/08/24 01:32:54;;;;;;;10.23;7.45;;;;;;;25.59;40.77;94496.81;4973921;28;99234;-50
2021/08/24 01:35:23;;;;;;;11.85;7.97;;;;;;;25.59;40.82;94496.03;4976582;28;96736;-53
2021/08/24 01:38:05;;;;;;;10.75;8.80;;;;;;;25.59;40.93;94496.03;4975527;28;97135;-54
2021/08/24 01:40:50;;;;;;;11.32;8.10;;;;;;;25.58;40.65;94494.50;4974798;28;99433;-53
2021/08/24 01:43:20;;;;;;;9.75;8.27;;;;;;;25.57;40.94;94504.00;4959189;28;99090;-52
2021/08/24 01:45:52;;;;;;;11.75;7.85;;;;;;;25.58;40.84;94494.50;4975289;28;96727;-51
2021/08/24 01:48:30;;;;;;;9.85;7.30;;;;;;;25.55;40.78;94495.38;4959578;28;96754;-53
2021/08/24 01:50:59;;;;;;;10.45;7.00;;;;;;;25.56;40.87;94491.38;4974755;28;99801;-51
2021/08/24 01:53:36;;;;;;;8.82;7.05;;;;;;;25.54;41.12;94500.09;4974199;28;99408;-51
2021/08/24 01:56:30;;;;;;;11.23;6.80;;;;;;;25.53;40.96;94498.53;4960106;28;97369;-49
2021/08/24 01:59:02;;;;;;;10.63;8.30;;;;;;;25.52;40.80;94490.69;4972177;28;97061;-53
2021/08/24 02:01:35;;;;;;;11.32;9.20;;;;;;;25.49;41.15;94492.34;4958492;28;99805;-48
2021/08/24 02:04:01;;;;;;;11.98;9.07;;;;;;;25.50;41.13;94484.84;4975761;28;99255;-57
2021/08/24 02:06:41;;;;;;;12.57;9.15;;;;;;;25.42;38.81;94487.75;4958067;28;96757;-60
2021/08/24 02:09:27;;;;;;;10.82;8.63;;;;;;;25.34;42.07;94502.97;4959021;28;96834;-65
2021/08/24 02:11:53;;;;;;;13.40;8.93;;;;;;;25.31;41.38;94490.81;4973542;28;99908;-66
2021/08/24 02:14:18;;;;;;;12.13;9.65;;;;;;;25.33;46.80;94501.41;4975579;28;99716;-69
2021/08/24 02:16:45;;;;;;;10.68;8.43;;;;;;;25.35;48.63;94493.47;4974684;28;96648;-65
2021/08/24 02:19:13;;;;;;;12.18;7.90;;;;;;;25.34;43.85;94486.38;4958131;28;96910;-71
2021/08/24 02:21:42;;;;;;;10.00;8.00;;;;;;;25.31;44.87;94481.72;4973405;28;99865;-68
2021/08/24 02:24:10;;;;;;;11.77;7.53;;;;;;;25.29;43.62;94495.19;4973802;28;99404;-74
2021/08/24 02:26:36;;;;;;;12.45;7.38;;;;;;;25.34;46.19;94500.19;4958409;28;97012;-70
2021/08/24 02:29:01;;;;;;;13.48;7.97;;;;;;;25.39;42.66;94494.16;4958205;28;96929;-68
2021/08/24 02:31:35;;;;;;;10.07;8.05;;;;;;;25.40;42.42;94495.69;4973949;28;100331;-71
2021/08/24 02:34:28;;;;;;;14.63;8.40;;;;;;;25.39;50.21;94488.63;4975206;28;99269;-67
2021/08/24 02:37:25;;;;;;;12.30;7.72;;;;;;;25.36;50.26;94483.97;4975369;28;96670;-65
2021/08/24 02:39:59;;;;;;;10.77;7.53;;;;;;;25.37;50.17;94491.03;4975883;28;96978;-68
2021/08/24 02:42:43;;;;;;;11.02;7.00;;;;;;;25.40;49.80;94481.09;4973894;28;99660;-73
2021/08/24 02:45:10;;;;;;;8.82;7.45;;;;;;;25.39;47.35;94485.84;4974780;28;99222;-64
2021/08/24 02:47:35;;;;;;;13.80;9.00;;;;;;;25.38;49.34;94486.28;4974956;28;96738;-69
2021/08/24 02:50:02;;;;;;;12.52;9.20;;;;;;;25.39;50.03;94493.34;4975232;28;96915;-65
2021/08/24 02:52:28;;;;;;;12.70;9.90;;;;;;;25.38;49.41;94487.06;4973220;28;99157;-66
2021/08/24 02:54:57;;;;;;;13.10;10.68;;;;;;;25.37;49.56;94485.50;4974292;28;96834;-63
2021/08/24 02:57:23;;;;;;;13.90;10.70;;;;;;;25.39;50.37;94491.38;4974977;28;96826;-66
2021/08/24 02:59:48;;;;;;;11.32;9.75;;;;;;;25.42;50.95;94486.97;4975113;28;97236;-67
2021/08/24 03:02:14;;;;;;;11.38;8.45;;;;;;;25.47;48.86;94488.47;4974560;28;100025;-67
2021/08/24 03:04:39;;;;;;;11.75;8.65;;;;;;;25.47;48.03;94482.94;4974830;28;99456;-68
2021/08/24 03:07:26;;;;;;;14.00;8.80;;;;;;;25.54;49.07;94491.03;4975155;28;96918;-66
2021/08/24 03:09:52;;;;;;;8.70;7.57;;;;;;;25.56;47.76;94496.91;4974099;28;97438;-68
2021/08/24 03:12:41;;;;;;;12.18;7.78;;;;;;;25.59;49.21;94496.03;4956499;28;99088;-70
2021/08/24 03:15:22;;;;;;;10.32;7.30;;;;;;;25.60;52.20;94494.84;4974700;28;98580;-69
2021/08/24 03:17:57;;;;;;;16.88;9.27;;;;;;;25.60;53.58;94497.59;4958862;28;96718;-68
2021/08/24 03:20:26;;;;;;;11.70;8.45;;;;;;;25.64;51.78;94492.72;4974764;28;96924;-67
2021/08/24 03:22:52;;;;;;;10.20;7.68;;;;;;;25.64;50.76;94487.19;4973267;28;100475;-66
2021/08/24 03:25:17;;;;;;;9.95;7.68;;;;;;;25.68;53.29;94487.09;4972986;28;99555;-65
2021/08/24 03:27:44;;;;;;;18.73;11.68;;;;;;;25.73;51.12;94490.09;4957395;28;97080;-65
2021/08/24 03:30:12;;;;;;;11.93;9.10;;;;;;;25.75;51.54;94487.69;4974877;28;96730;-64
2021/08/24 03:32:37;;;;;;;12.25;8.77;;;;;;;25.84;50.78;94480.72;4974481;28;99611;-70
2021/08/24 03:35:03;;;;;;;12.63;9.07;;;;;;;25.86;50.85;94478.31;4974022;28;99510;-69
2021/08/24 03:37:28;;;;;;;16.58;14.75;;;;;;;25.91;49.41;94477.78;4976971;28;97076;-68
2021/08/24 03:39:54;;;;;;;25.35;21.40;;;;;;;25.93;48.36;94474.56;4984474;28;97400;-67
2021/08/24 03:42:19;;;;;;;29.73;26.73;;;;;;;25.97;49.23;94478.78;4993441;28;98958;-65
2021/08/24 03:44:46;;;;;;;22.70;20.23;;;;;;;25.95;48.11;94478.44;4993426;28;99370;-66
2021/08/24 03:47:12;;;;;;;21.50;17.63;;;;;;;25.95;48.26;94475.69;4994418;28;96793;-69
2021/08/24 03:49:38;;;;;;;21.92;16.98;;;;;;;25.97;47.57;94498.16;4984791;28;97031;-63
2021/08/24 03:52:04;;;;;;;20.33;11.73;;;;;;;25.89;46.92;94485.72;4982234;28;99366;-70
2021/08/24 03:54:29;;;;;;;12.95;8.70;;;;;;;25.91;45.20;94488.84;4975393;28;98858;-67
2021/08/24 03:56:55;;;;;;;13.80;9.98;;;;;;;25.58;45.67;94494.50;4977348;28;96733;-64
2021/08/24 03:59:20;;;;;;;13.40;9.32;;;;;;;25.53;45.90;94500.56;4977643;28;96935;-66
2021/08/24 04:01:46;;;;;;;12.07;8.15;;;;;;;25.54;44.10;94491.81;4976955;28;99450;-66
2021/08/24 04:04:11;;;;;;;12.27;8.23;;;;;;;25.51;48.52;94489.16;4977098;28;99159;-72
2021/08/24 04:06:37;;;;;;;10.27;7.90;;;;;;;25.56;48.11;94485.84;4977777;28;97752;-72
2021/08/24 04:09:02;;;;;;;11.73;8.20;;;;;;;25.59;48.64;94490.50;4977444;28;96906;-72
2021/08/24 04:11:27;;;;;;;12.05;7.70;;;;;;;25.62;48.47;94489.63;4977299;28;99649;-72
2021/08/24 04:13:53;;;;;;;8.57;7.30;;;;;;;25.64;48.83;94487.19;4977162;28;98945;-73
2021/08/24 04:16:18;;;;;;;17.58;14.88;;;;;;;25.64;48.59;94489.19;4977796;28;96697;-70
2021/08/24 04:18:44;;;;;;;32.55;29.30;;;;;;;25.68;46.68;94487.88;4975749;28;96856;-69
2021/08/24 04:21:11;;;;;;;18.42;16.13;;;;;;;25.73;48.05;94487.34;4976953;28;99314;-71
2021/08/24 04:23:37;;;;;;;23.45;19.83;;;;;;;25.78;48.63;94490.78;4976710;28;99537;-73
2021/08/24 04:26:02;;;;;;;19.65;15.35;;;;;;;25.77;47.44;94490.03;4976891;28;96662;-69
2021/08/24 04:28:28;;;;;;;31.58;25.70;;;;;;;25.77;48.03;94490.03;4977499;28;96936;-70
2021/08/24 04:30:53;;;;;;;30.33;25.55;;;;;;;25.80;47.88;94493.88;4976586;28;99700;-68
2021/08/24 04:33:21;;;;;;;25.23;22.60;;;;;;;25.82;48.85;94499.75;4976315;28;99280;-70
2021/08/24 04:35:53;;;;;;;29.13;25.27;;;;;;;25.84;46.48;94506.44;4977103;28;96637;-72
2021/08/24 04:38:18;;;;;;;;;;;;;;;25.94;45.69;94510.09;4977626;28;96913;-72
2021/08/24 04:40:44;;;;;;;23.88;19.80;;;;;;;25.96;45.45;94512.41;4977120;28;99979;-71
2021/08/24 04:43:10;;;;;;;22.45;19.05;;;;;;;26.00;45.08;94519.41;4976974;28;99475;-76
2021/08/24 04:45:35;;;;;;;16.15;13.52;;;;;;;26.07;45.93;94520.44;4977186;28;96702;-72
2021/08/24 04:48:01;;;;;;;14.38;12.88;;;;;;;26.11;45.92;94518.34;4977084;28;96907;-74
2021/08/24 04:50:26;;;;;;;16.20;13.38;;;;;;;26.14;45.61;94517.50;4976389;28;100111;-74
2021/08/24 04:52:52;;;;;;;15.18;12.50;;;;;;;26.15;45.70;94513.50;4976000;28;99672;-73
2021/08/24 04:55:17;;;;;;;14.60;12.25;;;;;;;26.11;46.52;94508.03;4976974;28;96647;-72
2021/08/24 04:57:42;;;;;;;13.00;11.48;;;;;;;26.16;45.20;94521.34;4977184;28;96991;-72
2021/08/24 05:00:09;;;;;;;12.63;11.25;;;;;;;26.15;45.10;94514.28;4976364;28;99434;-73
2021/08/24 05:02:34;;;;;;;12.68;11.13;;;;;;;26.15;45.67;94513.50;4976453;28;99668;-73
2021/08/24 05:04:59;;;;;;;13.68;10.80;;;;;;;26.17;45.52;94516.63;4976703;28;96779;-72
2021/08/24 05:07:25;;;;;;;13.05;10.40;;;;;;;26.15;45.10;94521.81;4976775;28;96926;-72
2021/08/24 05:09:50;;;;;;;12.25;10.00;;;;;;;26.15;44.99;94513.50;4976312;28;99530;-71
2021/08/24 05:12:16;;;;;;;12.07;9.73;;;;;;;26.14;44.14;94517.50;4976220;28;99037;-75
2021/08/24 05:14:41;;;;;;;12.10;9.55;;;;;;;26.13;45.24;94522.22;4976569;28;96698;-74
2021/08/24 05:17:07;;;;;;;9.07;8.20;;;;;;;26.10;44.24;94512.00;4976855;28;96929;-74
2021/08/24 05:19:32;;;;;;;10.48;9.13;;;;;;;26.12;44.71;94522.66;4976108;28;99705;-74
2021/08/24 05:21:57;;;;;;;9.27;8.30;;;;;;;26.10;44.24;94523.09;4976311;28;98765;-76
2021/08/24 05:24:23;;;;;;;9.48;7.82;;;;;;;26.11;44.03;94529.41;4976380;28;96777;-73
2021/08/24 05:26:48;;;;;;;10.18;7.82;;;;;;;26.11;43.69;94529.41;4976755;28;96960;-75
2021/08/24 05:29:16;;;;;;;8.57;7.65;;;;;;;26.12;43.71;94525.44;4976358;28;99574;-73
2021/08/24 05:31:42;;;;;;;7.43;6.72;;;;;;;26.14;44.05;94528.56;4976728;28;99537;-74
2021/08/24 05:34:07;;;;;;;8.07;7.05;;;;;;;26.15;44.38;94530.13;4976455;28;96869;-73
2021/08/24 05:36:33;;;;;;;7.40;6.60;;;;;;;26.18;44.75;94529.25;4976457;28;96954;-73
2021/08/24 05:38:58;;;;;;;7.95;6.82;;;;;;;26.21;44.13;94528.31;4975423;28;99602;-74
2021/08/24 05:41:24;;;;;;;7.70;6.90;;;;;;;26.25;44.15;94529.00;4976519;28;99749;-73
2021/08/24 05:43:49;;;;;;;7.45;6.32;;;;;;;26.26;44.76;94527.78;4976458;28;96645;-79
2021/08/24 05:46:15;;;;;;;6.53;5.68;;;;;;;26.27;43.59;94529.34;4976649;28;97049;-74
2021/08/24 05:48:40;;;;;;;6.60;5.30;;;;;;;26.28;44.62;94533.66;4975993;28;100113;-72
2021/08/24 05:51:17;;;;;;;8.35;5.68;;;;;;;26.28;43.22;94527.38;4975945;28;98863;-73
2021/08/24 05:53:42;;;;;;;6.13;5.40;;;;;;;26.28;43.63;94527.38;4976467;28;96809;-75
2021/08/24 05:56:11;;;;;;;5.55;4.97;;;;;;;26.26;43.48;94527.78;4976709;28;97158;-73
2021/08/24 05:58:37;;;;;;;6.28;5.20;;;;;;;26.26;43.32;94529.78;4975708;28;99422;-73
2021/08/24 06:01:02;;;;;;;6.50;4.75;;;;;;;26.24;43.82;94533.00;4975997;28;99690;-73
2021/08/24 06:03:28;;;;;;;5.38;4.93;;;;;;;26.23;43.26;94525.91;4975740;28;96733;-73
2021/08/24 06:05:53;;;;;;;5.30;4.80;;;;;;;26.21;43.21;94522.03;4976347;28;96938;-75
2021/08/24 06:08:19;;;;;;;5.47;4.80;;;;;;;26.23;42.68;94525.13;4975400;28;99537;-73
2021/08/24 06:10:44;;;;;;;5.40;4.32;;;;;;;26.23;43.35;94517.59;4975850;28;99345;-73
2021/08/24 06:13:10;;;;;;;5.57;4.55;;;;;;;26.25;42.95;94520.69;4976058;28;96896;-73
2021/08/24 06:15:35;;;;;;;5.70;4.47;;;;;;;26.27;43.69;94526.56;4976894;28;96926;-77
2021/08/24 06:18:01;;;;;;;4.55;4.15;;;;;;;26.29;43.16;94517.84;4974907;28;99908;-73
2021/08/24 06:20:26;;;;;;;4.32;3.92;;;;;;;26.33;43.31;94512.97;4976095;28;98998;-73
2021/08/24 06:22:52;;;;;;;4.25;3.85;;;;;;;26.37;43.23;94515.63;4976910;28;96760;-76
2021/08/24 06:25:17;;;;;;;3.85;3.55;;;;;;;26.40;43.05;94517.53;4976772;28;97045;-77
2021/08/24 06:27:43;;;;;;;4.47;3.83;;;;;;;26.42;43.06;94515.09;4975127;28;99346;-73
2021/08/24 06:30:10;;;;;;;6.00;3.97;;;;;;;26.42;43.34;94515.09;4975477;28;99642;-72
2021/08/24 06:32:37;;;;;;;4.70;3.67;;;;;;;26.45;42.75;94511.44;4975757;28;96694;-73
2021/08/24 06:35:03;;;;;;;3.58;3.28;;;;;;;26.43;42.82;94513.88;4974563;28;97020;-73
2021/08/24 06:37:29;;;;;;;3.70;3.35;;;;;;;26.44;43.28;94512.66;4975109;28;99667;-73
2021/08/24 06:39:54;;;;;;;3.63;3.33;;;;;;;26.42;43.30;94512.31;4975394;28;99056;-73
2021/08/24 06:42:20;;;;;;;3.63;3.33;;;;;;;26.40;43.01;94511.97;4974598;28;96632;-73
2021/08/24 06:44:45;;;;;;;4.07;3.70;;;;;;;26.38;43.56;94514.41;4976266;28;96937;-72
2021/08/24 06:47:11;;;;;;;3.63;3.13;;;;;;;26.37;42.93;94512.88;4975088;28;99441;-76
2021/08/24 06:49:36;;;;;;;3.90;3.60;;;;;;;26.37;43.58;94512.88;4975062;28;98944;-74
2021/08/24 06:52:04;;;;;;;3.92;3.28;;;;;;;26.32;43.30;94517.72;4974266;28;96709;-72
2021/08/24 06:54:30;;;;;;;3.65;3.35;;;;;;;26.31;43.21;94521.72;4975552;28;96931;-74
2021/08/24 06:56:55;;;;;;;3.30;3.00;;;;;;;26.29;43.04;94513.06;4975090;28;99347;-77
2021/08/24 06:59:21;;;;;;;3.88;3.40;;;;;;;26.27;43.67;94518.28;4975358;28;99325;-73
2021/08/24 07:01:47;;;;;;;3.28;3.00;;;;;;;26.26;43.84;94525.03;4975693;28;96634;-74
2021/08/24 07:04:12;;;;;;;3.50;3.20;;;;;;;26.25;43.33;94529.00;4975495;28;96931;-74
2021/08/24 07:06:39;;;;;;;3.35;3.00;;;;;;;26.23;43.60;94520.38;4974933;28;100102;-73
2021/08/24 07:09:05;;;;;;;3.15;2.85;;;;;;;26.24;43.35;94521.16;4975344;28;99366;-73
2021/08/24 07:11:30;;;;;;;3.22;2.92;;;;;;;26.25;42.94;94523.47;4975378;28;96705;-74
2021/08/24 07:13:58;;;;;;;2.95;2.67;;;;;;;26.25;43.53;94512.41;4975268;28;97029;-77
2021/08/24 07:16:23;;;;;;;3.00;2.80;;;;;;;26.28;43.42;94522.59;4974413;28;99647;-73
2021/08/24 07:18:51;;;;;;;2.90;2.70;;;;;;;26.30;43.38;94520.16;4974756;28;99928;-73
2021/08/24 07:21:17;;;;;;;2.92;2.60;;;;;;;26.33;43.99;94513.75;4974856;28;97016;-73
2021/08/24 07:23:43;;;;;;;2.80;2.60;;;;;;;26.35;43.67;94510.56;4975308;28;96977;-72
2021/08/24 07:26:09;;;;;;;3.40;2.75;;;;;;;26.37;43.21;94513.66;4974655;28;100002;-73
2021/08/24 07:28:35;;;;;;;2.92;2.67;;;;;;;26.38;43.15;94508.88;4974745;28;99107;-73
2021/08/24 07:31:00;;;;;;;2.60;2.40;;;;;;;26.40;43.56;94514.75;4978090;28;96740;-73
2021/08/24 07:33:26;;;;;;;2.88;2.58;;;;;;;26.41;43.41;94513.53;4979098;28;96934;-73
2021/08/24 07:35:51;;;;;;;2.35;2.17;;;;;;;26.40;43.03;94511.97;4978081;28;99706;-73
2021/08/24 07:38:17;;;;;;;3.13;2.83;;;;;;;26.39;43.39;94516.75;4977722;28;99791;-73
2021/08/24 07:40:43;;;;;;;2.80;2.60;;;;;;;26.37;43.48;94501.78;4977913;28;96739;-73
2021/08/24 07:43:08;;;;;;;3.45;2.60;;;;;;;26.36;43.60;94505.78;4978469;28;96900;-74
2021/08/24 07:45:34;;;;;;;2.80;2.60;;;;;;;26.35;43.31;94510.56;4977887;28;99735;-73
2021/08/24 07:47:59;;;;;;;2.58;2.38;;;;;;;26.33;43.71;94508.22;4977853;28;98651;-73
2021/08/24 07:50:25;;;;;;;2.33;2.13;;;;;;;26.33;43.39;94505.44;4978350;28;96510;-73
2021/08/24 07:52:51;;;;;;;2.90;2.60;;;;;;;26.34;43.46;94509.75;4977697;28;96979;-73
2021/08/24 07:55:16;;;;;;;2.70;2.50;;;;;;;26.36;43.71;94508.53;4977638;28;99266;-73
2021/08/24 07:57:42;;;;;;;2.90;2.70;;;;;;;26.38;43.74;94501.38;4978033;28;99227;-73
2021/08/24 08:00:08;;;;;;;2.22;2.03;;;;;;;26.41;43.25;94502.47;4978319;28;96716;-73
2021/08/24 08:02:33;;;;;;;2.90;2.70;;;;;;;26.42;43.51;94504.00;4978158;28;96908;-72
2021/08/24 08:04:58;;;;;;;2.85;2.40;;;;;;;26.44;43.69;94496.03;4977168;28;99542;-73
2021/08/24 08:07:24;;;;;;;2.30;2.20;;;;;;;26.46;43.21;94499.16;4977441;28;99176;-73
2021/08/24 08:09:49;;;;;;;2.40;2.20;;;;;;;26.47;43.59;94500.69;4978053;28;96674;-73
2021/08/24 08:12:16;;;;;;;2.25;2.15;;;;;;;26.47;43.29;94500.69;4977908;28;96966;-73
2021/08/24 08:14:42;;;;;;;2.30;2.10;;;;;;;26.46;43.14;94504.69;4977391;28;99644;-74
2021/08/24 08:17:10;;;;;;;2.20;2.00;;;;;;;26.43;43.49;94503.59;4977406;28;98851;-74
2021/08/24 08:19:36;;;;;;;2.95;2.40;;;;;;;26.42;44.00;94498.47;4977560;28;96824;-73
2021/08/24 08:22:02;;;;;;;3.05;2.75;;;;;;;26.42;44.20;94509.56;4978107;28;96940;-73
2021/08/24 08:24:28;;;;;;;2.20;2.10;;;;;;;26.40;43.80;94500.91;4977346;28;99383;-75
2021/08/24 08:26:53;;;;;;;2.67;2.28;;;;;;;26.38;44.01;94508.88;4977516;28;100165;-73
2021/08/24 08:29:18;;;;;;;2.45;2.22;;;;;;;26.36;43.24;94501.03;4977341;28;96701;-73
2021/08/24 08:31:45;;;;;;;2.25;1.80;;;;;;;26.31;43.56;94494.03;4977654;28;96946;-77
2021/08/24 08:34:11;;;;;;;3.25;2.13;;;;;;;26.33;43.37;94499.91;4976999;28;99754;-73
2021/08/24 08:36:36;;;;;;;2.17;2.08;;;;;;;26.29;43.61;94499.22;4976758;28;99288;-75
2021/08/24 08:39:02;;;;;;;3.88;2.20;;;;;;;26.29;43.47;94488.16;4978010;28;97611;-73
2021/08/24 08:41:35;;;;;;;2.20;2.00;;;;;;;26.28;43.26;94486.59;4977088;28;96980;-74
2021/08/24 08:44:02;;;;;;;2.28;2.08;;;;;;;26.26;44.34;94491.81;4977184;28;99485;-72
2021/08/24 08:46:37;;;;;;;1.90;1.80;;;;;;;26.28;43.56;94488.63;4959933;28;99099;-73
2021/08/24 08:49:20;;;;;;;2.20;2.08;;;;;;;26.27;43.34;94487.81;4977456;28;97160;-73
2021/08/24 08:52:03;;;;;;;2.00;1.90;;;;;;;26.29;43.39;94485.38;4975678;28;96945;-73
2021/08/24 08:54:43;;;;;;;1.80;1.70;;;;;;;26.30;43.95;94475.88;4975188;28;99669;-75
2021/08/24 08:57:13;;;;;;;2.30;2.10;;;;;;;26.34;43.59;94475.78;4976993;28;99402;-74
2021/08/24 08:59:49;;;;;;;2.07;1.97;;;;;;;26.37;43.53;94469.34;4943717;28;96788;-72
2021/08/24 09:02:35;;;;;;;1.98;1.88;;;;;;;26.40;43.65;94468.47;4975930;28;97058;-73
2021/08/24 09:05:01;;;;;;;2.00;1.90;;;;;;;26.42;43.47;94477.13;4976554;28;99882;-76
2021/08/24 09:07:41;;;;;;;2.53;2.33;;;;;;;26.46;43.65;94477.00;4976968;28;97396;-75
2021/08/24 09:10:11;;;;;;;1.80;1.70;;;;;;;26.48;43.47;94466.25;4975755;28;96638;-73
2021/08/24 09:12:37;;;;;;;2.00;1.90;;;;;;;26.48;43.54;94461.50;4976320;28;96903;-72
2021/08/24 09:15:03;;;;;;;2.15;1.92;;;;;;;26.47;43.55;94457.19;4976501;28;99328;-73
2021/08/24 09:17:35;;;;;;;2.65;1.95;;;;;;;26.49;43.74;94467.81;4959213;28;99298;-73
2021/08/24 09:20:20;;;;;;;2.33;1.98;;;;;;;26.45;43.80;94454.09;4976330;28;96744;-75
2021/08/24 09:22:45;;;;;;;3.03;1.90;;;;;;;26.46;43.63;94458.41;4975553;28;97036;-73
2021/08/24 09:25:17;;;;;;;1.83;1.73;;;;;;;26.46;43.69;94466.72;4976487;28;99576;-73
2021/08/24 09:27:51;;;;;;;1.70;1.60;;;;;;;26.45;43.36;94453.28;4975214;28;98888;-74
2021/08/24 09:30:17;;;;;;;1.70;1.60;;;;;;;26.44;43.88;94458.06;4976739;28;96648;-73
2021/08/24 09:32:42;;;;;;;1.90;1.80;;;;;;;26.43;43.27;94447.41;4976663;28;96958;-72
2021/08/24 09:35:20;;;;;;;1.95;1.80;;;;;;;26.47;43.37;94456.38;4976073;28;99537;-73
2021/08/24 09:37:45;;;;;;;1.80;1.70;;;;;;;26.50;43.19;94449.97;4976582;28;99433;-73
2021/08/24 09:40:11;;;;;;;2.08;1.90;;;;;;;26.51;43.46;94445.97;4976628;28;96778;-73
2021/08/24 09:42:41;;;;;;;1.73;1.50;;;;;;;26.56;43.67;94452.94;4975478;28;97042;-73
2021/08/24 09:45:18;;;;;;;2.08;1.98;;;;;;;26.56;43.17;94445.44;4975634;28;98811;-73
2021/08/24 09:47:45;;;;;;;2.28;2.13;;;;;;;26.55;43.22;94446.66;4975831;28;98861;-74
2021/08/24 09:50:15;;;;;;;2.10;2.00;;;;;;;26.57;43.37;94444.22;4976868;28;96742;-73
2021/08/24 09:52:40;;;;;;;1.90;1.73;;;;;;;26.57;43.64;94443.41;4974051;28;97013;-73
2021/08/24 09:55:10;;;;;;;1.85;1.75;;;;;;;26.57;43.31;94437.88;4957766;28;99681;-73
2021/08/24 09:57:37;;;;;;;1.60;1.50;;;;;;;26.57;43.04;94438.66;4974828;28;99642;-74
2021/08/24 10:00:23;;;;;;;1.88;1.77;;;;;;;26.55;43.08;94427.25;4959029;28;96765;-73
2021/08/24 10:02:51;;;;;;;1.90;1.80;;;;;;;26.54;43.82;94433.22;4976842;28;96770;-73
2021/08/24 10:05:22;;;;;;;2.03;1.83;;;;;;;26.52;42.99;94430.91;4975800;28;99683;-77
2021/08/24 10:07:49;;;;;;;1.90;1.73;;;;;;;26.51;42.98;94423.81;4975808;28;99671;-73
2021/08/24 10:10:34;;;;;;;1.80;1.70;;;;;;;26.51;43.24;94423.81;4975628;28;96775;-75
2021/08/24 10:13:35;;;;;;;1.65;1.55;;;;;;;26.49;43.10;94420.72;4976408;28;96927;-72
2021/08/24 10:16:05;;;;;;;1.50;1.40;;;;;;;26.47;43.29;94412.09;4974656;28;99116;-73
2021/08/24 10:18:30;;;;;;;2.08;1.58;;;;;;;26.47;43.14;94409.31;4975658;28;99323;-73
2021/08/24 10:21:25;;;;;;;1.80;1.70;;;;;;;26.47;43.42;94401.00;4975935;28;96773;-74
2021/08/24 10:23:57;;;;;;;2.17;1.73;;;;;;;26.46;43.01;94402.22;4969569;28;97007;-72
2021/08/24 10:26:25;;;;;;;;;;;;;;;26.46;42.52;94407.78;4976074;28;99569;-74
2021/08/24 10:28:58;;;;;;;1.77;1.67;;;;;;;26.41;43.37;94394.47;4974492;28;99216;-74
2021/08/24 10:31:28;;;;;;;1.60;1.50;;;;;;;26.47;43.19;94401.81;4975960;28;96760;-73
2021/08/24 10:34:05;;;;;;;1.58;1.48;;;;;;;26.50;43.23;94400.13;4976038;28;96911;-74
2021/08/24 10:36:44;;;;;;;1.60;1.50;;;;;;;26.53;42.94;94404.00;4974936;28;100091;-75
2021/08/24 10:39:22;;;;;;;2.05;1.70;;;;;;;26.58;43.09;94398.69;4974122;28;99935;-72
2021/08/24 10:42:03;;;;;;;2.22;1.73;;;;;;;26.59;43.58;94386.38;4975871;28;96883;-76
2021/08/24 10:44:29;;;;;;;1.98;1.77;;;;;;;26.61;43.39;94389.47;4975874;28;96808;-72
2021/08/24 10:47:01;;;;;;;1.70;1.60;;;;;;;26.66;43.26;94379.06;4975225;28;99237;-74
2021/08/24 10:49:27;;;;;;;2.10;1.73;;;;;;;26.70;43.48;94379.72;4975284;28;99431;-73
2021/08/24 10:51:55;;;;;;;2.13;2.00;;;;;;;26.72;43.55;94382.81;4973949;28;97062;-72
2021/08/24 10:54:29;;;;;;;1.80;1.70;;;;;;;26.73;43.17;94387.13;4976114;28;96724;-75
2021/08/24 10:57:10;;;;;;;2.22;1.90;;;;;;;26.73;42.78;94385.13;4973938;28;99598;-73
2021/08/24 11:00:00;;;;;;;1.92;1.73;;;;;;;26.74;42.32;94374.84;4959235;28;99152;-72
2021/08/24 11:02:48;;;;;;;1.85;1.70;;;;;;;26.72;42.96;94375.28;4973774;28;96876;-72
2021/08/24 11:05:25;;;;;;;2.35;2.15;;;;;;;26.71;42.63;94364.66;4975336;28;96839;-73
2021/08/24 11:07:56;;;;;;;1.85;1.75;;;;;;;26.69;42.88;94361.56;4975052;28;98662;-73
2021/08/24 11:10:28;;;;;;;2.83;2.03;;;;;;;26.68;42.90;94360.75;4974196;28;99535;-73
2021/08/24 11:13:05;;;;;;;2.25;2.05;;;;;;;26.70;42.65;94360.34;4975441;28;97117;-76
2021/08/24 11:15:45;;;;;;;2.60;2.40;;;;;;;26.70;42.84;94363.09;4975184;28;96989;-73
2021/08/24 11:18:29;;;;;;;3.08;2.78;;;;;;;26.72;42.67;94366.19;4973575;28;99842;-74
2021/08/24 11:21:21;;;;;;;3.20;2.90;;;;;;;26.72;42.60;94366.19;4975229;28;96906;-75
2021/08/24 11:23:59;;;;;;;2.88;2.58;;;;;;;26.73;42.51;94356.66;4946212;28;96900;-73
2021/08/24 11:26:31;;;;;;;3.05;2.60;;;;;;;26.76;42.59;94353.00;4974211;28;96740;-74
2021/08/24 11:29:07;;;;;;;3.83;3.08;;;;;;;26.74;42.67;94347.91;4973037;28;99615;-72
2021/08/24 11:31:41;;;;;;;3.17;2.83;;;;;;;26.73;42.41;94362.97;4974853;28;100009;-74
2021/08/24 11:34:12;;;;;;;3.30;2.50;;;;;;;26.72;42.92;94360.66;4958306;28;96688;-72
2021/08/24 11:36:47;;;;;;;3.17;2.88;;;;;;;26.70;42.48;94346.47;4974156;28;97035;-73
2021/08/24 11:39:45;;;;;;;3.97;3.08;;;;;;;26.70;42.47;94340.94;4973575;28;99366;-75
2021/08/24 11:42:12;;;;;;;3.85;2.80;;;;;;;26.68;42.57;94346.16;4960126;28;99287;-73